createdAt,value
2019-05-01T00:02:23.446Z,8.30
2019-05-01T00:05:06.288Z,8.30
2019-05-01T00:07:39.954Z,8.30
2019-05-01T00:10:13.798Z,8.40
2019-05-01T00:12:48.253Z,8.30
2019-05-01T00:15:22.897Z,8.30
2019-05-01T00:17:56.555Z,8.30
2019-05-01T00:20:30.126Z,8.30
2019-05-01T00:23:03.842Z,8.20
2019-05-01T00:25:37.461Z,8.10
2019-05-01T00:28:11.165Z,8.00
2019-05-01T00:30:44.847Z,8.00
2019-05-01T00:33:19.408Z,7.90
2019-05-01T00:35:53.129Z,7.90
2019-05-01T00:38:26.684Z,8.00
2019-05-01T00:41:00.327Z,8.00
2019-05-01T00:43:34.172Z,8.00
2019-05-01T00:46:07.731Z,7.90
2019-05-01T00:48:41.324Z,7.80
2019-05-01T00:51:14.879Z,7.80
2019-05-01T00:53:48.568Z,7.90
2019-05-01T00:56:28.883Z,7.80
2019-05-01T00:59:02.655Z,7.80
2019-05-01T01:01:37.143Z,7.80
2019-05-01T01:04:10.818Z,7.70
2019-05-01T01:06:44.423Z,7.60
2019-05-01T01:09:18.017Z,7.60
2019-05-01T01:11:51.731Z,7.50
2019-05-01T01:14:26.151Z,7.60
2019-05-01T01:16:59.863Z,7.50
2019-05-01T01:19:34.205Z,7.50
2019-05-01T01:22:08.712Z,7.50
2019-05-01T01:24:42.284Z,7.50
2019-05-01T01:27:15.883Z,7.60
2019-05-01T01:29:50.252Z,7.60
2019-05-01T01:32:23.838Z,7.60
2019-05-01T01:34:57.415Z,7.60
2019-05-01T01:37:31.711Z,7.50
2019-05-01T01:40:05.499Z,7.50
2019-05-01T01:42:39.050Z,7.40
2019-05-01T01:45:12.821Z,7.40
2019-05-01T01:47:52.982Z,7.20
2019-05-01T01:50:26.641Z,7.20
2019-05-01T01:53:00.209Z,7.20
2019-05-01T01:55:33.760Z,7.30
2019-05-01T01:58:07.407Z,7.30
2019-05-01T02:01:08.928Z,7.40
2019-05-01T02:03:33.131Z,7.40
2019-05-01T02:06:06.717Z,7.20
2019-05-01T02:08:40.507Z,7.10
2019-05-01T02:11:14.055Z,7.10
2019-05-01T02:13:47.630Z,7.10
2019-05-01T02:16:21.199Z,7.10
2019-05-01T02:18:55.064Z,7.10
2019-05-01T02:21:28.590Z,7.00
2019-05-01T02:24:02.417Z,7.00
2019-05-01T02:26:51.741Z,7.00
2019-05-01T02:29:25.433Z,7.00
2019-05-01T02:31:59.130Z,7.00
2019-05-01T02:34:32.815Z,7.00
2019-05-01T02:37:06.316Z,6.90
2019-05-01T02:39:39.901Z,6.90
2019-05-01T02:42:13.668Z,6.80
2019-05-01T02:44:47.457Z,6.80
2019-05-01T02:47:21.205Z,6.80
2019-05-01T02:49:58.467Z,6.80
2019-05-01T02:52:32.020Z,6.80
2019-05-01T02:55:06.390Z,6.70
2019-05-01T02:57:39.959Z,6.70
2019-05-01T03:00:13.594Z,6.70
2019-05-01T03:02:47.174Z,6.70
2019-05-01T03:05:21.496Z,6.70
2019-05-01T03:07:55.238Z,6.70
2019-05-01T03:10:29.844Z,6.70
2019-05-01T03:13:03.511Z,6.70
2019-05-01T03:15:37.216Z,6.70
2019-05-01T03:18:10.843Z,6.70
2019-05-01T03:20:44.645Z,6.60
2019-05-01T03:23:33.863Z,6.50
2019-05-01T03:26:07.402Z,6.50
2019-05-01T03:28:41.001Z,6.50
2019-05-01T03:31:15.498Z,6.50
2019-05-01T03:33:49.267Z,6.40
2019-05-01T03:36:22.909Z,6.50
2019-05-01T03:38:56.608Z,6.50
2019-05-01T03:41:30.218Z,6.40
2019-05-01T03:44:03.744Z,6.40
2019-05-01T03:46:37.318Z,6.30
2019-05-01T03:49:11.104Z,6.30
2019-05-01T03:51:44.715Z,6.30
2019-05-01T03:54:18.377Z,6.30
2019-05-01T03:56:51.970Z,6.30
2019-05-01T03:59:25.540Z,6.30
2019-05-01T04:02:00.099Z,6.20
2019-05-01T04:04:33.716Z,6.20
2019-05-01T04:07:07.283Z,6.20
2019-05-01T04:09:41.671Z,6.30
2019-05-01T04:12:15.401Z,6.30
2019-05-01T04:14:49.000Z,6.40
2019-05-01T04:17:38.440Z,6.40
2019-05-01T04:20:12.247Z,6.40
2019-05-01T04:22:45.991Z,6.40
2019-05-01T04:25:19.844Z,6.40
2019-05-01T04:27:53.526Z,6.40
2019-05-01T04:30:27.820Z,6.40
2019-05-01T04:33:02.130Z,6.50
2019-05-01T04:35:42.288Z,6.50
2019-05-01T04:38:16.037Z,6.50
2019-05-01T04:40:49.816Z,6.50
2019-05-01T04:43:23.404Z,6.40
2019-05-01T04:45:57.252Z,6.40
2019-05-01T04:48:31.542Z,6.40
2019-05-01T04:51:05.856Z,6.40
2019-05-01T04:53:39.560Z,6.30
2019-05-01T04:56:13.363Z,6.30
2019-05-01T04:58:47.100Z,6.30
2019-05-01T05:01:20.859Z,6.40
2019-05-01T05:03:54.439Z,6.60
2019-05-01T05:06:28.248Z,6.70
2019-05-01T05:09:02.635Z,7.00
2019-05-01T05:11:42.151Z,7.00
2019-05-01T05:14:15.777Z,7.10
2019-05-01T05:16:49.372Z,7.20
2019-05-01T05:19:23.128Z,7.30
2019-05-01T05:21:56.880Z,7.40
2019-05-01T05:24:31.269Z,7.60
2019-05-01T05:27:05.799Z,7.60
2019-05-01T05:29:40.207Z,7.70
2019-05-01T05:32:13.873Z,7.70
2019-05-01T05:34:47.606Z,7.80
2019-05-01T05:37:23.739Z,7.90
2019-05-01T05:39:57.488Z,7.90
2019-05-01T05:42:31.159Z,7.90
2019-05-01T05:45:04.802Z,8.00
2019-05-01T05:47:38.578Z,7.90
2019-05-01T05:50:12.408Z,7.90
2019-05-01T05:52:46.239Z,7.90
2019-05-01T05:55:34.775Z,8.00
2019-05-01T05:58:12.110Z,8.20
2019-05-01T06:14:13.343Z,8.80
2019-05-01T06:16:52.470Z,8.90
2019-05-01T06:19:26.655Z,9.00
2019-05-01T06:22:10.025Z,8.80
2019-05-01T06:24:56.256Z,8.50
2019-05-01T06:27:29.927Z,8.50
2019-05-01T06:30:06.489Z,8.50
2019-05-01T06:32:39.816Z,8.40
2019-05-01T06:35:11.037Z,8.70
2019-05-01T06:37:56.005Z,8.90
2019-05-01T06:40:32.992Z,9.10
2019-05-01T06:43:07.379Z,9.40
2019-05-01T06:45:51.654Z,9.40
2019-05-01T06:48:24.648Z,9.60
2019-05-01T06:51:04.818Z,9.80
2019-05-01T06:53:39.992Z,9.80
2019-05-01T06:56:12.055Z,9.90
2019-05-01T06:58:45.637Z,10.00
2019-05-01T07:01:23.742Z,10.10
2019-05-01T07:04:03.625Z,10.30
2019-05-01T07:06:31.189Z,10.40
2019-05-01T07:09:00.670Z,10.50
2019-05-01T07:11:34.384Z,10.60
2019-05-01T07:14:11.255Z,10.60
2019-05-01T07:16:41.567Z,10.70
2019-05-01T07:19:16.290Z,10.80
2019-05-01T07:21:49.930Z,10.70
2019-05-01T07:24:24.005Z,10.80
2019-05-01T07:26:59.786Z,10.90
2019-05-01T07:29:32.872Z,11.10
2019-05-01T07:32:06.305Z,11.20
2019-05-01T07:34:38.538Z,11.40
2019-05-01T07:37:12.963Z,11.60
2019-05-01T07:39:49.912Z,11.60
2019-05-01T07:42:25.296Z,11.70
2019-05-01T07:45:03.825Z,11.80
2019-05-01T07:47:35.627Z,12.00
2019-05-01T07:50:10.067Z,12.10
2019-05-01T07:52:43.666Z,12.30
2019-05-01T07:55:18.266Z,12.40
2019-05-01T07:57:50.856Z,12.50
2019-05-01T08:13:47.194Z,14.00
2019-05-01T08:16:21.263Z,15.10
2019-05-01T08:19:05.999Z,16.40
2019-05-01T08:21:40.386Z,17.60
2019-05-01T08:24:17.966Z,18.70
2019-05-01T08:26:47.907Z,19.50
2019-05-01T08:29:42.158Z,19.70
2019-05-01T08:32:33.746Z,20.00
2019-05-01T08:35:06.457Z,20.00
2019-05-01T08:37:40.361Z,20.60
2019-05-01T08:40:15.816Z,20.80
2019-05-01T08:42:47.927Z,21.20
2019-05-01T08:45:27.445Z,21.80
2019-05-01T08:48:06.803Z,22.20
2019-05-01T08:50:40.334Z,22.40
2019-05-01T08:53:18.121Z,22.70
2019-05-01T08:55:47.891Z,23.00
2019-05-01T08:58:21.651Z,23.30
2019-05-01T09:00:55.470Z,22.90
2019-05-01T09:03:29.247Z,23.10
2019-05-01T09:06:03.056Z,23.30
2019-05-01T09:08:36.621Z,23.50
2019-05-01T09:11:10.228Z,22.80
2019-05-01T09:13:44.052Z,22.20
2019-05-01T09:16:19.266Z,23.60
2019-05-01T09:18:52.969Z,24.10
2019-05-01T09:21:27.461Z,24.30
2019-05-01T09:24:01.322Z,24.30
2019-05-01T09:26:36.043Z,24.40
2019-05-01T09:29:16.144Z,23.00
2019-05-01T09:31:45.831Z,22.90
2019-05-01T09:34:21.058Z,22.80
2019-05-01T09:36:53.434Z,22.20
2019-05-01T09:39:27.040Z,22.20
2019-05-01T09:42:00.825Z,22.70
2019-05-01T09:44:34.431Z,22.70
2019-05-01T09:47:08.159Z,23.40
2019-05-01T09:49:41.808Z,23.60
2019-05-01T09:52:30.280Z,24.20
2019-05-01T09:55:04.667Z,24.60
2019-05-01T09:57:41.464Z,25.40
2019-05-01T10:00:16.129Z,25.40
2019-05-01T10:02:49.912Z,25.50
2019-05-01T10:05:28.936Z,25.40
2019-05-01T10:08:00.196Z,24.80
2019-05-01T10:10:31.271Z,23.30
2019-05-01T10:13:05.007Z,23.20
2019-05-01T10:15:38.558Z,23.90
2019-05-01T10:18:12.233Z,24.60
2019-05-01T10:20:45.929Z,25.00
2019-05-01T10:23:19.589Z,25.20
2019-05-01T10:25:53.405Z,24.80
2019-05-01T10:28:29.385Z,24.10
2019-05-01T10:31:13.232Z,24.10
2019-05-01T10:34:02.910Z,24.10
2019-05-01T10:36:37.041Z,23.40
2019-05-01T10:39:10.553Z,23.30
2019-05-01T10:41:46.411Z,23.20
2019-05-01T10:44:18.711Z,23.80
2019-05-01T10:46:52.385Z,23.80
2019-05-01T10:49:26.877Z,24.10
2019-05-01T10:52:13.142Z,24.10
2019-05-01T10:54:34.173Z,24.60
2019-05-01T10:57:07.904Z,25.00
2019-05-01T10:59:41.623Z,25.30
2019-05-01T11:02:16.234Z,25.00
2019-05-01T11:04:49.942Z,25.00
2019-05-01T11:07:23.613Z,25.30
2019-05-01T11:09:58.125Z,22.70
2019-05-01T11:12:31.928Z,22.70
2019-05-01T11:15:06.358Z,23.00
2019-05-01T11:17:40.043Z,23.70
2019-05-01T11:20:14.511Z,24.40
2019-05-01T11:22:48.175Z,23.40
2019-05-01T11:25:21.768Z,22.30
2019-05-01T11:27:55.504Z,21.60
2019-05-01T11:30:29.200Z,21.40
2019-05-01T11:33:05.522Z,21.50
2019-05-01T11:36:09.309Z,21.20
2019-05-01T11:51:59.265Z,20.30
2019-05-01T11:54:33.811Z,19.90
2019-05-01T11:57:07.470Z,19.80
2019-05-01T11:59:41.270Z,19.80
2019-05-01T12:02:14.965Z,20.10
2019-05-01T12:04:48.683Z,20.30
2019-05-01T12:07:22.425Z,19.90
2019-05-01T12:09:56.855Z,20.20
2019-05-01T12:12:30.639Z,20.20
2019-05-01T12:15:05.247Z,20.40
2019-05-01T12:17:39.699Z,20.30
2019-05-01T12:20:13.576Z,20.10
2019-05-01T12:22:51.241Z,20.00
2019-05-01T12:25:21.837Z,20.00
2019-05-01T12:27:55.567Z,20.30
2019-05-01T12:30:29.177Z,20.10
2019-05-01T12:33:02.763Z,19.80
2019-05-01T12:35:36.349Z,19.80
2019-05-01T12:38:10.808Z,19.60
2019-05-01T12:40:45.346Z,19.70
2019-05-01T12:43:19.185Z,19.60
2019-05-01T12:45:52.846Z,19.60
2019-05-01T12:48:26.624Z,19.30
2019-05-01T12:51:00.541Z,19.50
2019-05-01T12:53:44.857Z,19.50
2019-05-01T12:56:19.919Z,19.50
2019-05-01T12:58:55.922Z,19.80
2019-05-01T13:01:28.881Z,19.80
2019-05-01T13:04:03.297Z,20.00
2019-05-01T13:06:48.859Z,20.10
2019-05-01T13:09:12.370Z,20.10
2019-05-01T13:11:45.935Z,20.10
2019-05-01T13:14:20.371Z,20.30
2019-05-01T13:16:54.188Z,20.30
2019-05-01T13:19:28.698Z,20.40
2019-05-01T13:22:05.201Z,20.10
2019-05-01T13:24:36.855Z,19.80
2019-05-01T13:27:11.549Z,19.90
2019-05-01T13:29:47.892Z,19.90
2019-05-01T13:32:42.325Z,20.20
2019-05-01T13:35:16.700Z,20.30
2019-05-01T13:37:50.343Z,20.30
2019-05-01T13:40:24.043Z,20.10
2019-05-01T13:42:57.572Z,19.70
2019-05-01T13:45:32.066Z,19.90
2019-05-01T13:48:05.865Z,19.90
2019-05-01T13:50:39.529Z,20.10
2019-05-01T13:53:13.320Z,20.30
2019-05-01T13:55:47.273Z,20.40
2019-05-01T13:58:20.929Z,20.40
2019-05-01T14:00:55.297Z,20.50
2019-05-01T14:03:29.068Z,20.50
2019-05-01T14:06:03.650Z,20.40
2019-05-01T14:08:37.345Z,20.40
2019-05-01T14:11:11.002Z,20.40
2019-05-01T14:13:44.888Z,20.40
2019-05-01T14:16:18.583Z,20.30
2019-05-01T14:18:53.079Z,20.30
2019-05-01T14:21:27.549Z,20.30
2019-05-01T14:24:10.999Z,20.30
2019-05-01T14:26:44.723Z,20.30
2019-05-01T14:29:18.459Z,20.10
2019-05-01T14:31:52.331Z,20.10
2019-05-01T14:34:26.183Z,20.10
2019-05-01T14:36:59.880Z,20.10
2019-05-01T14:39:33.648Z,20.10
2019-05-01T14:42:07.392Z,20.30
2019-05-01T14:44:41.123Z,20.30
2019-05-01T14:47:14.919Z,20.30
2019-05-01T14:49:48.604Z,20.30
2019-05-01T14:52:23.062Z,20.40
2019-05-01T14:54:56.656Z,20.40
2019-05-01T14:57:30.393Z,20.20
2019-05-01T15:00:05.967Z,20.10
2019-05-01T15:02:39.624Z,20.00
2019-05-01T15:05:13.225Z,20.10
2019-05-01T15:07:47.552Z,20.10
2019-05-01T15:10:21.955Z,20.30
2019-05-01T15:12:55.504Z,20.20
2019-05-01T15:15:44.972Z,20.40
2019-05-01T15:18:35.377Z,20.60
2019-05-01T15:21:10.024Z,20.30
2019-05-01T15:23:53.407Z,20.30
2019-05-01T15:26:18.107Z,20.20
2019-05-01T15:28:51.720Z,20.30
2019-05-01T15:31:25.307Z,20.20
2019-05-01T15:33:58.990Z,20.40
2019-05-01T15:36:33.778Z,20.60
2019-05-01T15:39:07.373Z,20.70
2019-05-01T15:41:59.975Z,20.70
2019-05-01T15:44:33.693Z,20.70
2019-05-01T15:47:07.375Z,20.60
2019-05-01T15:49:41.278Z,20.60
2019-05-01T15:52:15.597Z,20.60
2019-05-01T15:54:49.233Z,20.50
2019-05-01T15:57:23.468Z,20.60
2019-05-01T15:59:57.075Z,20.50
2019-05-01T16:02:30.821Z,20.30
2019-05-01T16:05:04.579Z,20.10
2019-05-01T16:07:38.270Z,20.00
2019-05-01T16:10:11.930Z,20.00
2019-05-01T16:12:46.277Z,20.00
2019-05-01T16:15:28.828Z,20.20
2019-05-01T16:18:02.590Z,20.20
2019-05-01T16:20:36.459Z,20.10
2019-05-01T16:23:10.062Z,20.00
2019-05-01T16:25:43.748Z,20.00
2019-05-01T16:28:17.642Z,20.00
2019-05-01T16:30:51.246Z,19.90
2019-05-01T16:33:24.887Z,19.80
2019-05-01T16:35:58.503Z,19.80
2019-05-01T16:38:48.993Z,19.70
2019-05-01T16:41:23.486Z,19.70
2019-05-01T16:43:57.950Z,19.80
2019-05-01T16:46:32.397Z,19.80
2019-05-01T16:49:06.083Z,19.80
2019-05-01T16:51:39.731Z,19.80
2019-05-01T16:54:13.561Z,19.80
2019-05-01T16:56:47.284Z,19.80
2019-05-01T16:59:20.986Z,19.80
2019-05-01T17:01:54.735Z,19.80
2019-05-01T17:04:28.446Z,19.70
2019-05-01T17:07:07.746Z,19.60
2019-05-01T17:09:47.295Z,19.60
2019-05-01T17:12:20.951Z,19.60
2019-05-01T17:14:54.640Z,19.60
2019-05-01T17:17:28.415Z,19.50
2019-05-01T17:20:02.984Z,19.50
2019-05-01T17:22:36.707Z,19.50
2019-05-01T17:25:11.161Z,19.50
2019-05-01T17:27:45.054Z,19.50
2019-05-01T17:30:19.464Z,19.40
2019-05-01T17:32:53.942Z,19.30
2019-05-01T17:35:28.499Z,19.20
2019-05-01T17:38:02.854Z,19.20
2019-05-01T17:40:36.504Z,19.10
2019-05-01T17:43:13.567Z,19.10
2019-05-01T17:45:43.897Z,19.10
2019-05-01T17:48:17.686Z,19.10
2019-05-01T17:50:54.994Z,19.00
2019-05-01T17:53:26.022Z,19.00
2019-05-01T17:55:59.661Z,19.00
2019-05-01T17:58:33.331Z,18.90
2019-05-01T18:01:07.808Z,18.80
2019-05-01T18:03:42.930Z,18.80
2019-05-01T18:06:16.571Z,18.80
2019-05-01T18:09:02.505Z,18.70
2019-05-01T18:11:24.921Z,18.70
2019-05-01T18:13:58.684Z,18.70
2019-05-01T18:16:32.414Z,18.70
2019-05-01T18:19:06.097Z,18.60
2019-05-01T18:21:40.502Z,18.50
2019-05-01T18:24:23.093Z,18.50
2019-05-01T18:27:14.658Z,18.40
2019-05-01T18:29:46.739Z,18.40
2019-05-01T18:32:31.242Z,18.30
2019-05-01T18:35:09.049Z,18.00
2019-05-01T18:37:39.462Z,17.90
2019-05-01T18:40:28.810Z,17.60
2019-05-01T18:43:02.370Z,17.60
2019-05-01T18:45:56.825Z,17.40
2019-05-01T18:48:30.442Z,17.10
2019-05-01T18:51:04.081Z,17.00
2019-05-01T18:53:37.827Z,16.90
2019-05-01T18:56:12.178Z,16.70
2019-05-01T18:58:45.859Z,16.60
2019-05-01T19:01:20.439Z,16.50
2019-05-01T19:03:54.225Z,16.50
2019-05-01T19:06:40.586Z,16.40
2019-05-01T19:09:14.332Z,16.30
2019-05-01T19:11:36.048Z,16.30
2019-05-01T19:14:09.745Z,16.20
2019-05-01T19:16:45.272Z,16.20
2019-05-01T19:19:17.877Z,16.10
2019-05-01T19:21:52.168Z,16.00
2019-05-01T19:24:25.919Z,16.00
2019-05-01T19:26:59.684Z,15.90
2019-05-01T19:29:33.897Z,15.80
2019-05-01T19:32:07.819Z,15.60
2019-05-01T19:34:41.676Z,15.60
2019-05-01T19:37:16.499Z,15.50
2019-05-01T19:39:53.770Z,15.50
2019-05-01T19:42:24.237Z,15.30
2019-05-01T19:44:57.942Z,15.30
2019-05-01T19:47:31.656Z,15.20
2019-05-01T19:50:07.484Z,15.10
2019-05-01T19:52:39.867Z,15.10
2019-05-01T19:55:13.787Z,15.10
2019-05-01T19:57:47.451Z,15.10
2019-05-01T20:13:47.773Z,14.70
2019-05-01T20:16:21.473Z,14.70
2019-05-01T20:18:55.306Z,14.60
2019-05-01T20:21:29.058Z,14.60
2019-05-01T20:24:04.472Z,14.50
2019-05-01T20:26:37.373Z,14.50
2019-05-01T20:29:11.176Z,14.50
2019-05-01T20:31:45.862Z,14.40
2019-05-01T20:34:18.801Z,14.30
2019-05-01T20:36:52.298Z,14.20
2019-05-01T20:39:26.106Z,14.10
2019-05-01T20:41:59.896Z,14.10
2019-05-01T20:44:34.489Z,13.90
2019-05-01T20:47:08.013Z,13.90
2019-05-01T20:49:42.550Z,13.90
2019-05-01T20:52:15.469Z,13.90
2019-05-01T20:54:49.237Z,13.80
2019-05-01T20:57:23.437Z,13.90
2019-05-01T20:59:57.083Z,13.70
2019-05-01T21:02:30.845Z,13.50
2019-05-01T21:05:10.359Z,13.40
2019-05-01T21:08:04.727Z,13.40
2019-05-01T21:10:53.276Z,13.40
2019-05-01T21:13:26.967Z,13.50
2019-05-01T21:16:01.806Z,13.50
2019-05-01T21:18:35.354Z,13.30
2019-05-01T21:21:09.022Z,13.30
2019-05-01T21:23:43.452Z,13.30
2019-05-01T21:26:16.440Z,13.30
2019-05-01T21:28:50.212Z,13.30
2019-05-01T21:31:24.085Z,13.40
2019-05-01T21:33:58.220Z,13.30
2019-05-01T21:36:31.860Z,13.30
2019-05-01T21:39:05.427Z,13.30
2019-05-01T21:41:39.270Z,13.30
2019-05-01T21:44:13.247Z,13.30
2019-05-01T21:46:46.922Z,13.20
2019-05-01T21:49:20.488Z,13.00
2019-05-01T21:51:54.062Z,12.90
2019-05-01T21:54:28.407Z,12.90
2019-05-01T21:57:02.081Z,12.90
2019-05-01T21:59:39.634Z,12.90
2019-05-01T22:02:11.962Z,12.90
2019-05-01T22:04:44.300Z,12.90
2019-05-01T22:07:18.596Z,12.70
2019-05-01T22:09:52.146Z,12.80
2019-05-01T22:12:25.967Z,12.70
2019-05-01T22:14:59.639Z,12.60
2019-05-01T22:17:38.284Z,12.60
2019-05-01T22:20:12.786Z,12.40
2019-05-01T22:22:48.365Z,12.40
2019-05-01T22:25:22.771Z,12.30
2019-05-01T22:27:58.057Z,12.20
2019-05-01T22:30:31.814Z,12.20
2019-05-01T22:33:05.481Z,12.20
2019-05-01T22:35:41.056Z,12.20
2019-05-01T22:38:14.683Z,12.20
2019-05-01T22:40:49.197Z,12.10
2019-05-01T22:43:22.874Z,12.10
2019-05-01T22:46:01.572Z,12.00
2019-05-01T22:48:30.364Z,11.90
2019-05-01T22:51:04.078Z,11.90
2019-05-01T22:53:38.697Z,11.90
2019-05-01T22:56:12.392Z,11.80
2019-05-01T22:58:46.712Z,11.80
2019-05-01T23:01:20.493Z,11.80
2019-05-01T23:03:54.117Z,11.70
2019-05-01T23:06:28.008Z,11.70
2019-05-01T23:09:01.580Z,11.70
2019-05-01T23:11:35.138Z,11.80
2019-05-01T23:14:08.725Z,11.70
2019-05-01T23:16:42.451Z,11.60
2019-05-01T23:19:16.222Z,11.50
2019-05-01T23:21:51.017Z,11.50
2019-05-01T23:24:23.557Z,11.50
2019-05-01T23:26:57.989Z,11.60
2019-05-01T23:29:31.660Z,11.50
2019-05-01T23:32:05.208Z,11.50
2019-05-01T23:34:38.998Z,11.40
2019-05-01T23:37:12.691Z,11.40
2019-05-01T23:39:46.991Z,11.30
2019-05-01T23:42:20.709Z,11.30
2019-05-01T23:44:54.371Z,11.30
2019-05-01T23:47:28.515Z,11.30
2019-05-01T23:50:02.527Z,11.30
2019-05-01T23:52:38.634Z,11.30
2019-05-01T23:55:10.053Z,11.30
2019-05-01T23:57:43.645Z,11.30
